sensor_id;sensor_type;location;lat;lon;timestamp;pressure;altitude;pressure_sealevel;temperature;humidity
72096;BME280;59968;51.084;16.748;2023-06-24T00:02:06;100496.91;;;19.19;89.25
72096;BME280;59968;51.084;16.748;2023-06-24T00:04:58;100498.95;;;19.15;89.53
72096;BME280;59968;51.084;16.748;2023-06-24T00:07:29;100503.36;;;19.12;90.18
72096;BME280;59968;51.084;16.748;2023-06-24T00:09:57;100502.30;;;19.07;90.56
72096;BME280;59968;51.084;16.748;2023-06-24T00:12:26;100504.04;;;19.04;90.66
72096;BME280;59968;51.084;16.748;2023-06-24T00:14:54;100507.15;;;19.02;91.10
72096;BME280;59968;51.084;16.748;2023-06-24T00:17:23;100510.33;;;19.00;91.46
72096;BME280;59968;51.084;16.748;2023-06-24T00:19:51;100510.38;;;18.96;92.40
72096;BME280;59968;51.084;16.748;2023-06-24T00:22:23;100511.89;;;18.92;92.48
72096;BME280;59968;51.084;16.748;2023-06-24T00:24:51;100517.51;;;18.89;93.16
72096;BME280;59968;51.084;16.748;2023-06-24T00:27:20;100521.76;;;18.85;93.18
72096;BME280;59968;51.084;16.748;2023-06-24T00:29:48;100521.16;;;18.81;93.44
72096;BME280;59968;51.084;16.748;2023-06-24T00:32:16;100520.73;;;18.74;94.07
72096;BME280;59968;51.084;16.748;2023-06-24T00:34:50;100525.86;;;18.70;93.97
72096;BME280;59968;51.084;16.748;2023-06-24T00:37:18;100525.77;;;18.62;94.44
72096;BME280;59968;51.084;16.748;2023-06-24T00:39:46;100523.75;;;18.58;94.48
72096;BME280;59968;51.084;16.748;2023-06-24T00:42:15;100523.27;;;18.54;94.86
72096;BME280;59968;51.084;16.748;2023-06-24T00:44:44;100526.77;;;18.50;95.10
72096;BME280;59968;51.084;16.748;2023-06-24T00:47:13;100528.80;;;18.47;94.87
72096;BME280;59968;51.084;16.748;2023-06-24T00:49:42;100530.98;;;18.42;93.81
72096;BME280;59968;51.084;16.748;2023-06-24T00:52:13;100538.67;;;18.37;93.26
72096;BME280;59968;51.084;16.748;2023-06-24T00:54:45;100543.02;;;18.26;90.87
72096;BME280;59968;51.084;16.748;2023-06-24T00:57:14;100550.38;;;18.05;89.52
72096;BME280;59968;51.084;16.748;2023-06-24T00:59:44;100551.90;;;17.86;89.27
72096;BME280;59968;51.084;16.748;2023-06-24T01:05:38;100560.90;;;17.46;90.54
72096;BME280;59968;51.084;16.748;2023-06-24T01:08:08;100563.35;;;17.34;90.79
72096;BME280;59968;51.084;16.748;2023-06-24T01:10:37;100567.59;;;17.27;90.58
72096;BME280;59968;51.084;16.748;2023-06-24T01:13:05;100577.48;;;17.20;91.07
72096;BME280;59968;51.084;16.748;2023-06-24T01:15:35;100582.03;;;17.11;91.53
72096;BME280;59968;51.084;16.748;2023-06-24T01:20:55;100591.11;;;16.96;91.70
72096;BME280;59968;51.084;16.748;2023-06-24T01:26:12;100603.87;;;16.88;92.02
72096;BME280;59968;51.084;16.748;2023-06-24T01:29:03;100607.33;;;16.84;92.37
72096;BME280;59968;51.084;16.748;2023-06-24T01:31:46;100618.00;;;16.78;92.18
72096;BME280;59968;51.084;16.748;2023-06-24T01:37:04;100635.48;;;16.68;92.31
72096;BME280;59968;51.084;16.748;2023-06-24T01:39:39;100635.82;;;16.64;92.34
72096;BME280;59968;51.084;16.748;2023-06-24T01:42:12;100637.94;;;16.62;92.38
72096;BME280;59968;51.084;16.748;2023-06-24T01:44:43;100642.44;;;16.60;92.37
72096;BME280;59968;51.084;16.748;2023-06-24T01:47:15;100649.04;;;16.58;92.52
72096;BME280;59968;51.084;16.748;2023-06-24T01:49:47;100652.24;;;16.56;92.38
72096;BME280;59968;51.084;16.748;2023-06-24T01:52:21;100653.20;;;16.55;92.63
72096;BME280;59968;51.084;16.748;2023-06-24T01:54:52;100658.82;;;16.54;92.58
72096;BME280;59968;51.084;16.748;2023-06-24T01:57:22;100660.24;;;16.53;92.51
72096;BME280;59968;51.084;16.748;2023-06-24T01:59:53;100663.60;;;16.50;92.70
72096;BME280;59968;51.084;16.748;2023-06-24T02:02:25;100663.00;;;16.47;92.64
72096;BME280;59968;51.084;16.748;2023-06-24T02:04:56;100663.88;;;16.43;92.55
72096;BME280;59968;51.084;16.748;2023-06-24T02:07:25;100668.20;;;16.38;92.58
72096;BME280;59968;51.084;16.748;2023-06-24T02:09:55;100673.74;;;16.35;92.60
72096;BME280;59968;51.084;16.748;2023-06-24T02:12:25;100675.62;;;16.29;92.40
72096;BME280;59968;51.084;16.748;2023-06-24T02:14:56;100676.25;;;16.23;92.83
72096;BME280;59968;51.084;16.748;2023-06-24T02:17:25;100678.70;;;16.15;93.72
72096;BME280;59968;51.084;16.748;2023-06-24T02:19:58;100685.80;;;16.09;93.24
72096;BME280;59968;51.084;16.748;2023-06-24T02:22:28;100688.74;;;16.04;93.27
72096;BME280;59968;51.084;16.748;2023-06-24T02:24:57;100694.88;;;16.02;93.34
72096;BME280;59968;51.084;16.748;2023-06-24T02:27:27;100697.84;;;15.99;93.12
72096;BME280;59968;51.084;16.748;2023-06-24T02:29:57;100698.95;;;15.93;93.66
72096;BME280;59968;51.084;16.748;2023-06-24T02:32:27;100705.08;;;15.90;93.80
72096;BME280;59968;51.084;16.748;2023-06-24T02:34:57;100706.86;;;15.89;94.08
72096;BME280;59968;51.084;16.748;2023-06-24T02:37:29;100710.84;;;15.89;94.23
72096;BME280;59968;51.084;16.748;2023-06-24T02:39:58;100714.47;;;15.88;94.13
72096;BME280;59968;51.084;16.748;2023-06-24T02:42:28;100709.60;;;15.89;94.03
72096;BME280;59968;51.084;16.748;2023-06-24T02:44:56;100709.33;;;15.91;94.37
72096;BME280;59968;51.084;16.748;2023-06-24T02:47:25;100709.83;;;15.91;94.88
72096;BME280;59968;51.084;16.748;2023-06-24T02:49:57;100710.58;;;15.92;94.69
72096;BME280;59968;51.084;16.748;2023-06-24T02:52:27;100712.16;;;15.94;94.67
72096;BME280;59968;51.084;16.748;2023-06-24T02:54:58;100721.41;;;15.97;94.73
72096;BME280;59968;51.084;16.748;2023-06-24T02:57:45;100721.44;;;15.99;94.97
72096;BME280;59968;51.084;16.748;2023-06-24T03:00:29;100727.45;;;15.99;95.13
72096;BME280;59968;51.084;16.748;2023-06-24T03:03:12;100739.52;;;16.00;95.03
72096;BME280;59968;51.084;16.748;2023-06-24T03:05:48;100746.23;;;16.03;94.97
72096;BME280;59968;51.084;16.748;2023-06-24T03:08:20;100745.16;;;16.05;94.92
72096;BME280;59968;51.084;16.748;2023-06-24T03:10:54;100747.81;;;16.07;94.93
72096;BME280;59968;51.084;16.748;2023-06-24T03:13:24;100751.58;;;16.09;94.90
72096;BME280;59968;51.084;16.748;2023-06-24T03:16:01;100753.22;;;16.10;94.74
72096;BME280;59968;51.084;16.748;2023-06-24T03:18:31;100749.17;;;16.09;94.44
72096;BME280;59968;51.084;16.748;2023-06-24T03:21:00;100755.22;;;16.12;94.40
72096;BME280;59968;51.084;16.748;2023-06-24T03:23:31;100759.56;;;16.12;94.21
72096;BME280;59968;51.084;16.748;2023-06-24T03:26:07;100765.04;;;16.11;94.23
72096;BME280;59968;51.084;16.748;2023-06-24T03:28:38;100768.42;;;16.11;94.11
72096;BME280;59968;51.084;16.748;2023-06-24T03:31:15;100774.98;;;16.10;93.96
72096;BME280;59968;51.084;16.748;2023-06-24T03:33:46;100779.35;;;16.09;94.04
72096;BME280;59968;51.084;16.748;2023-06-24T03:36:16;100782.20;;;16.07;94.03
72096;BME280;59968;51.084;16.748;2023-06-24T03:38:46;100785.16;;;16.07;93.90
72096;BME280;59968;51.084;16.748;2023-06-24T03:41:14;100788.20;;;16.07;93.78
72096;BME280;59968;51.084;16.748;2023-06-24T03:43:44;100789.11;;;16.06;93.63
72096;BME280;59968;51.084;16.748;2023-06-24T03:46:13;100791.52;;;16.04;93.64
72096;BME280;59968;51.084;16.748;2023-06-24T03:48:42;100799.34;;;16.02;93.35
72096;BME280;59968;51.084;16.748;2023-06-24T03:51:12;100803.98;;;15.99;93.32
72096;BME280;59968;51.084;16.748;2023-06-24T03:53:40;100802.98;;;15.96;93.39
72096;BME280;59968;51.084;16.748;2023-06-24T03:56:09;100806.84;;;15.93;93.08
72096;BME280;59968;51.084;16.748;2023-06-24T03:58:37;100806.16;;;15.92;92.96
72096;BME280;59968;51.084;16.748;2023-06-24T04:01:06;100808.05;;;15.91;93.01
72096;BME280;59968;51.084;16.748;2023-06-24T04:03:35;100814.55;;;15.88;92.92
72096;BME280;59968;51.084;16.748;2023-06-24T04:06:05;100811.67;;;15.85;93.05
72096;BME280;59968;51.084;16.748;2023-06-24T04:08:37;100808.52;;;15.81;92.88
72096;BME280;59968;51.084;16.748;2023-06-24T04:11:11;100810.66;;;15.78;92.83
72096;BME280;59968;51.084;16.748;2023-06-24T04:14:02;100805.77;;;15.77;92.84
72096;BME280;59968;51.084;16.748;2023-06-24T04:16:55;100803.73;;;15.77;92.82
72096;BME280;59968;51.084;16.748;2023-06-24T04:19:24;100806.89;;;15.79;92.83
72096;BME280;59968;51.084;16.748;2023-06-24T04:21:53;100809.67;;;15.83;92.68
72096;BME280;59968;51.084;16.748;2023-06-24T04:24:21;100812.40;;;15.84;92.71
72096;BME280;59968;51.084;16.748;2023-06-24T04:26:51;100815.43;;;15.84;92.70
72096;BME280;59968;51.084;16.748;2023-06-24T04:29:19;100815.50;;;15.85;92.55
72096;BME280;59968;51.084;16.748;2023-06-24T04:31:47;100813.83;;;15.85;92.39
72096;BME280;59968;51.084;16.748;2023-06-24T04:34:17;100817.50;;;15.85;92.56
72096;BME280;59968;51.084;16.748;2023-06-24T04:36:46;100821.92;;;15.88;92.70
72096;BME280;59968;51.084;16.748;2023-06-24T04:39:15;100824.93;;;15.89;92.58
72096;BME280;59968;51.084;16.748;2023-06-24T04:41:44;100828.33;;;15.90;92.50
72096;BME280;59968;51.084;16.748;2023-06-24T04:44:14;100838.39;;;15.91;92.47
72096;BME280;59968;51.084;16.748;2023-06-24T04:46:43;100840.20;;;15.93;92.48
72096;BME280;59968;51.084;16.748;2023-06-24T04:49:11;100840.54;;;15.95;92.41
72096;BME280;59968;51.084;16.748;2023-06-24T04:51:40;100845.45;;;15.95;92.21
72096;BME280;59968;51.084;16.748;2023-06-24T04:54:09;100847.57;;;15.94;92.10
72096;BME280;59968;51.084;16.748;2023-06-24T04:56:42;100852.76;;;15.94;92.28
72096;BME280;59968;51.084;16.748;2023-06-24T04:59:16;100856.26;;;15.94;92.18
72096;BME280;59968;51.084;16.748;2023-06-24T05:01:45;100857.94;;;15.96;92.19
72096;BME280;59968;51.084;16.748;2023-06-24T05:04:14;100858.00;;;15.98;92.03
72096;BME280;59968;51.084;16.748;2023-06-24T05:06:42;100858.59;;;16.00;91.93
72096;BME280;59968;51.084;16.748;2023-06-24T05:09:11;100861.77;;;16.01;91.49
72096;BME280;59968;51.084;16.748;2023-06-24T05:11:42;100868.45;;;16.02;91.33
72096;BME280;59968;51.084;16.748;2023-06-24T05:14:10;100869.33;;;16.01;91.07
72096;BME280;59968;51.084;16.748;2023-06-24T05:16:39;100873.60;;;16.01;90.84
72096;BME280;59968;51.084;16.748;2023-06-24T05:19:08;100870.42;;;16.00;90.58
72096;BME280;59968;51.084;16.748;2023-06-24T05:21:36;100872.86;;;16.03;90.76
72096;BME280;59968;51.084;16.748;2023-06-24T05:24:05;100873.05;;;16.06;90.79
72096;BME280;59968;51.084;16.748;2023-06-24T05:26:34;100871.41;;;16.09;90.50
72096;BME280;59968;51.084;16.748;2023-06-24T05:29:02;100871.11;;;16.12;90.24
72096;BME280;59968;51.084;16.748;2023-06-24T05:31:31;100871.77;;;16.18;90.32
72096;BME280;59968;51.084;16.748;2023-06-24T05:34:00;100869.02;;;16.25;89.96
72096;BME280;59968;51.084;16.748;2023-06-24T05:36:28;100867.21;;;16.31;89.59
72096;BME280;59968;51.084;16.748;2023-06-24T05:38:56;100870.77;;;16.34;89.32
72096;BME280;59968;51.084;16.748;2023-06-24T05:41:25;100873.52;;;16.37;89.17
72096;BME280;59968;51.084;16.748;2023-06-24T05:44:07;100875.83;;;16.41;89.42
72096;BME280;59968;51.084;16.748;2023-06-24T05:46:37;100879.74;;;16.46;89.16
72096;BME280;59968;51.084;16.748;2023-06-24T05:49:05;100883.09;;;16.50;89.08
72096;BME280;59968;51.084;16.748;2023-06-24T05:51:34;100883.33;;;16.55;88.97
72096;BME280;59968;51.084;16.748;2023-06-24T05:54:02;100879.30;;;16.59;88.56
72096;BME280;59968;51.084;16.748;2023-06-24T05:56:32;100878.55;;;16.62;88.43
72096;BME280;59968;51.084;16.748;2023-06-24T05:59:00;100879.02;;;16.65;88.59
72096;BME280;59968;51.084;16.748;2023-06-24T06:01:28;100881.56;;;16.72;89.01
72096;BME280;59968;51.084;16.748;2023-06-24T06:03:57;100882.73;;;16.79;88.98
72096;BME280;59968;51.084;16.748;2023-06-24T06:06:27;100885.97;;;16.86;88.90
72096;BME280;59968;51.084;16.748;2023-06-24T06:08:57;100887.41;;;16.92;88.67
72096;BME280;59968;51.084;16.748;2023-06-24T06:11:26;100893.63;;;16.95;88.21
72096;BME280;59968;51.084;16.748;2023-06-24T06:13:54;100894.91;;;16.96;87.98
72096;BME280;59968;51.084;16.748;2023-06-24T06:16:23;100895.67;;;16.99;88.46
72096;BME280;59968;51.084;16.748;2023-06-24T06:18:52;100899.69;;;17.06;88.63
72096;BME280;59968;51.084;16.748;2023-06-24T06:21:21;100902.60;;;17.14;88.39
72096;BME280;59968;51.084;16.748;2023-06-24T06:23:50;100899.25;;;17.17;87.81
72096;BME280;59968;51.084;16.748;2023-06-24T06:26:19;100901.58;;;17.18;87.35
72096;BME280;59968;51.084;16.748;2023-06-24T06:28:48;100899.28;;;17.17;87.24
72096;BME280;59968;51.084;16.748;2023-06-24T06:31:19;100902.98;;;17.17;87.37
72096;BME280;59968;51.084;16.748;2023-06-24T06:33:52;100908.88;;;17.17;87.12
72096;BME280;59968;51.084;16.748;2023-06-24T06:36:27;100907.52;;;17.12;87.26
72096;BME280;59968;51.084;16.748;2023-06-24T06:39:06;100909.73;;;17.11;87.25
72096;BME280;59968;51.084;16.748;2023-06-24T06:41:35;100912.61;;;17.09;87.29
72096;BME280;59968;51.084;16.748;2023-06-24T06:44:05;100912.09;;;17.11;87.68
72096;BME280;59968;51.084;16.748;2023-06-24T06:46:43;100914.42;;;17.16;87.87
72096;BME280;59968;51.084;16.748;2023-06-24T06:49:13;100911.45;;;17.22;87.69
72096;BME280;59968;51.084;16.748;2023-06-24T06:51:42;100908.08;;;17.25;87.62
72096;BME280;59968;51.084;16.748;2023-06-24T06:54:11;100907.52;;;17.29;87.79
72096;BME280;59968;51.084;16.748;2023-06-24T06:56:49;100906.95;;;17.37;88.11
72096;BME280;59968;51.084;16.748;2023-06-24T06:59:22;100910.27;;;17.43;87.86
72096;BME280;59968;51.084;16.748;2023-06-24T07:01:51;100911.98;;;17.45;87.75
72096;BME280;59968;51.084;16.748;2023-06-24T07:04:21;100907.54;;;17.48;87.62
72096;BME280;59968;51.084;16.748;2023-06-24T07:06:51;100909.40;;;17.54;87.87
72096;BME280;59968;51.084;16.748;2023-06-24T07:09:22;100911.05;;;17.59;87.63
72096;BME280;59968;51.084;16.748;2023-06-24T07:11:51;100905.69;;;17.62;87.69
72096;BME280;59968;51.084;16.748;2023-06-24T07:14:23;100907.91;;;17.70;87.67
72096;BME280;59968;51.084;16.748;2023-06-24T07:16:57;100907.31;;;17.77;87.29
72096;BME280;59968;51.084;16.748;2023-06-24T07:19:32;100904.20;;;17.78;87.27
72096;BME280;59968;51.084;16.748;2023-06-24T07:22:12;100904.77;;;17.86;87.71
72096;BME280;59968;51.084;16.748;2023-06-24T07:24:44;100902.59;;;17.92;87.26
72096;BME280;59968;51.084;16.748;2023-06-24T07:27:20;100904.46;;;17.97;86.67
72096;BME280;59968;51.084;16.748;2023-06-24T07:30:11;100906.31;;;18.01;86.88
72096;BME280;59968;51.084;16.748;2023-06-24T07:32:50;100906.33;;;18.06;86.80
72096;BME280;59968;51.084;16.748;2023-06-24T07:35:34;100903.10;;;18.08;86.48
72096;BME280;59968;51.084;16.748;2023-06-24T07:38:18;100907.48;;;18.10;87.10
72096;BME280;59968;51.084;16.748;2023-06-24T07:40:47;100910.08;;;18.15;87.28
72096;BME280;59968;51.084;16.748;2023-06-24T07:43:21;100909.02;;;18.21;87.36
72096;BME280;59968;51.084;16.748;2023-06-24T07:45:52;100909.35;;;18.26;86.93
72096;BME280;59968;51.084;16.748;2023-06-24T07:48:23;100911.36;;;18.33;86.99
72096;BME280;59968;51.084;16.748;2023-06-24T07:50:54;100913.02;;;18.38;86.99
72096;BME280;59968;51.084;16.748;2023-06-24T07:53:29;100912.27;;;18.39;85.79
72096;BME280;59968;51.084;16.748;2023-06-24T07:56:02;100911.05;;;18.39;86.22
72096;BME280;59968;51.084;16.748;2023-06-24T07:58:34;100911.28;;;18.42;86.39
72096;BME280;59968;51.084;16.748;2023-06-24T08:01:07;100914.36;;;18.44;86.31
72096;BME280;59968;51.084;16.748;2023-06-24T08:03:39;100912.94;;;18.45;86.21
72096;BME280;59968;51.084;16.748;2023-06-24T08:06:14;100914.54;;;18.48;86.16
72096;BME280;59968;51.084;16.748;2023-06-24T08:08:47;100917.55;;;18.52;86.23
72096;BME280;59968;51.084;16.748;2023-06-24T08:11:19;100916.02;;;18.54;85.82
72096;BME280;59968;51.084;16.748;2023-06-24T08:13:51;100917.47;;;18.55;85.60
72096;BME280;59968;51.084;16.748;2023-06-24T08:16:26;100920.09;;;18.55;85.57
72096;BME280;59968;51.084;16.748;2023-06-24T08:18:59;100922.80;;;18.56;85.65
72096;BME280;59968;51.084;16.748;2023-06-24T08:21:32;100925.13;;;18.59;85.66
72096;BME280;59968;51.084;16.748;2023-06-24T08:24:13;100930.52;;;18.64;85.57
72096;BME280;59968;51.084;16.748;2023-06-24T08:26:48;100935.38;;;18.68;85.06
72096;BME280;59968;51.084;16.748;2023-06-24T08:29:27;100935.40;;;18.66;84.80
72096;BME280;59968;51.084;16.748;2023-06-24T08:32:05;100932.52;;;18.63;84.28
72096;BME280;59968;51.084;16.748;2023-06-24T08:34:40;100931.95;;;18.61;84.15
72096;BME280;59968;51.084;16.748;2023-06-24T08:37:12;100925.45;;;18.58;84.01
72096;BME280;59968;51.084;16.748;2023-06-24T08:39:43;100937.77;;;18.64;84.09
72096;BME280;59968;51.084;16.748;2023-06-24T08:42:16;100937.69;;;18.70;83.92
72096;BME280;59968;51.084;16.748;2023-06-24T08:44:50;100943.84;;;18.74;83.89
72096;BME280;59968;51.084;16.748;2023-06-24T08:47:24;100943.94;;;18.80;83.81
72096;BME280;59968;51.084;16.748;2023-06-24T08:50:15;100948.23;;;18.83;83.81
72096;BME280;59968;51.084;16.748;2023-06-24T08:52:53;100946.25;;;18.85;83.59
72096;BME280;59968;51.084;16.748;2023-06-24T08:55:28;100948.25;;;18.86;83.23
72096;BME280;59968;51.084;16.748;2023-06-24T08:58:03;100950.80;;;18.89;83.35
72096;BME280;59968;51.084;16.748;2023-06-24T09:00:34;100954.64;;;18.94;83.35
72096;BME280;59968;51.084;16.748;2023-06-24T09:03:09;100951.79;;;18.97;83.05
72096;BME280;59968;51.084;16.748;2023-06-24T09:05:39;100947.75;;;19.00;83.02
72096;BME280;59968;51.084;16.748;2023-06-24T09:08:09;100952.60;;;19.05;82.87
72096;BME280;59968;51.084;16.748;2023-06-24T09:10:40;100950.23;;;19.12;83.17
72096;BME280;59968;51.084;16.748;2023-06-24T09:13:13;100952.15;;;19.18;82.47
72096;BME280;59968;51.084;16.748;2023-06-24T09:15:42;100950.65;;;19.21;82.53
72096;BME280;59968;51.084;16.748;2023-06-24T09:18:10;100949.91;;;19.26;82.57
72096;BME280;59968;51.084;16.748;2023-06-24T09:20:42;100952.42;;;19.35;82.38
72096;BME280;59968;51.084;16.748;2023-06-24T09:23:25;100954.59;;;19.44;81.79
72096;BME280;59968;51.084;16.748;2023-06-24T09:25:59;100954.96;;;19.54;81.90
72096;BME280;59968;51.084;16.748;2023-06-24T09:28:34;100952.98;;;19.67;81.86
72096;BME280;59968;51.084;16.748;2023-06-24T09:31:09;100952.41;;;19.78;81.75
72096;BME280;59968;51.084;16.748;2023-06-24T09:33:44;100943.73;;;19.89;81.15
72096;BME280;59968;51.084;16.748;2023-06-24T09:36:14;100946.39;;;20.01;79.40
72096;BME280;59968;51.084;16.748;2023-06-24T09:38:44;100944.53;;;20.07;78.85
72096;BME280;59968;51.084;16.748;2023-06-24T09:41:14;100945.64;;;20.13;78.02
72096;BME280;59968;51.084;16.748;2023-06-24T09:43:43;100939.77;;;20.19;77.44
72096;BME280;59968;51.084;16.748;2023-06-24T09:46:14;100942.79;;;20.28;77.86
72096;BME280;59968;51.084;16.748;2023-06-24T09:48:44;100938.95;;;20.38;78.03
72096;BME280;59968;51.084;16.748;2023-06-24T09:51:17;100938.76;;;20.51;78.19
72096;BME280;59968;51.084;16.748;2023-06-24T09:53:48;100937.23;;;20.61;77.23
72096;BME280;59968;51.084;16.748;2023-06-24T09:56:21;100938.23;;;20.68;78.23
72096;BME280;59968;51.084;16.748;2023-06-24T09:58:50;100936.55;;;20.81;78.46
72096;BME280;59968;51.084;16.748;2023-06-24T10:01:19;100932.10;;;20.93;77.03
72096;BME280;59968;51.084;16.748;2023-06-24T10:03:49;100935.81;;;21.05;76.56
72096;BME280;59968;51.084;16.748;2023-06-24T10:06:19;100932.23;;;21.15;75.52
72096;BME280;59968;51.084;16.748;2023-06-24T10:08:49;100931.18;;;21.27;75.47
72096;BME280;59968;51.084;16.748;2023-06-24T10:11:18;100929.27;;;21.35;74.57
72096;BME280;59968;51.084;16.748;2023-06-24T10:13:47;100934.59;;;21.42;72.99
72096;BME280;59968;51.084;16.748;2023-06-24T10:16:15;100934.05;;;21.46;73.61
72096;BME280;59968;51.084;16.748;2023-06-24T10:18:45;100931.10;;;21.55;72.67
72096;BME280;59968;51.084;16.748;2023-06-24T10:21:15;100928.73;;;21.59;72.99
72096;BME280;59968;51.084;16.748;2023-06-24T10:23:53;100931.63;;;21.67;72.19
72096;BME280;59968;51.084;16.748;2023-06-24T10:26:27;100930.77;;;21.71;71.16
72096;BME280;59968;51.084;16.748;2023-06-24T10:31:52;100927.19;;;21.87;70.75
72096;BME280;59968;51.084;16.748;2023-06-24T10:37:04;100923.02;;;22.06;70.26
72096;BME280;59968;51.084;16.748;2023-06-24T10:47:43;100914.43;;;22.64;68.53
72096;BME280;59968;51.084;16.748;2023-06-24T10:50:14;100910.34;;;22.80;67.97
72096;BME280;59968;51.084;16.748;2023-06-24T10:52:47;100907.84;;;22.98;68.28
72096;BME280;59968;51.084;16.748;2023-06-24T10:55:17;100904.00;;;23.20;66.59
72096;BME280;59968;51.084;16.748;2023-06-24T10:57:46;100904.82;;;23.41;65.79
72096;BME280;59968;51.084;16.748;2023-06-24T11:00:15;100903.85;;;23.66;65.45
72096;BME280;59968;51.084;16.748;2023-06-24T11:02:44;100901.52;;;23.87;65.60
72096;BME280;59968;51.084;16.748;2023-06-24T11:05:13;100900.41;;;24.12;65.00
72096;BME280;59968;51.084;16.748;2023-06-24T11:07:42;100897.67;;;24.22;63.44
72096;BME280;59968;51.084;16.748;2023-06-24T11:10:15;100889.94;;;24.29;62.55
72096;BME280;59968;51.084;16.748;2023-06-24T11:12:44;100886.38;;;24.36;61.53
72096;BME280;59968;51.084;16.748;2023-06-24T11:15:15;100882.41;;;24.44;60.74
72096;BME280;59968;51.084;16.748;2023-06-24T11:17:43;100885.31;;;24.53;60.37
72096;BME280;59968;51.084;16.748;2023-06-24T11:20:13;100881.27;;;24.57;59.36
72096;BME280;59968;51.084;16.748;2023-06-24T11:22:44;100874.86;;;24.65;61.50
72096;BME280;59968;51.084;16.748;2023-06-24T11:25:19;100872.62;;;24.75;58.01
72096;BME280;59968;51.084;16.748;2023-06-24T11:27:51;100866.95;;;24.80;57.49
72096;BME280;59968;51.084;16.748;2023-06-24T11:30:22;100867.15;;;24.86;56.35
72096;BME280;59968;51.084;16.748;2023-06-24T11:32:50;100863.59;;;24.87;57.40
72096;BME280;59968;51.084;16.748;2023-06-24T11:35:19;100860.74;;;24.83;56.84
72096;BME280;59968;51.084;16.748;2023-06-24T11:37:48;100859.04;;;24.76;56.55
72096;BME280;59968;51.084;16.748;2023-06-24T11:40:19;100849.23;;;24.70;57.00
72096;BME280;59968;51.084;16.748;2023-06-24T11:42:48;100852.77;;;24.86;58.00
72096;BME280;59968;51.084;16.748;2023-06-24T11:45:20;100851.89;;;24.97;56.73
72096;BME280;59968;51.084;16.748;2023-06-24T11:47:50;100845.11;;;25.06;55.84
72096;BME280;59968;51.084;16.748;2023-06-24T11:50:26;100848.98;;;25.20;55.40
72096;BME280;59968;51.084;16.748;2023-06-24T11:52:56;100848.48;;;25.24;55.28
72096;BME280;59968;51.084;16.748;2023-06-24T11:55:28;100843.05;;;25.28;55.43
72096;BME280;59968;51.084;16.748;2023-06-24T11:58:02;100839.17;;;25.27;53.81
72096;BME280;59968;51.084;16.748;2023-06-24T12:00:39;100837.95;;;25.19;54.21
72096;BME280;59968;51.084;16.748;2023-06-24T12:03:14;100831.85;;;25.30;54.80
72096;BME280;59968;51.084;16.748;2023-06-24T12:05:47;100831.36;;;25.45;55.45
72096;BME280;59968;51.084;16.748;2023-06-24T12:08:17;100832.71;;;25.59;54.70
72096;BME280;59968;51.084;16.748;2023-06-24T12:10:46;100828.70;;;25.65;53.77
72096;BME280;59968;51.084;16.748;2023-06-24T12:13:15;100823.60;;;25.73;54.44
72096;BME280;59968;51.084;16.748;2023-06-24T12:15:44;100818.86;;;25.82;52.38
72096;BME280;59968;51.084;16.748;2023-06-24T12:18:13;100820.33;;;25.91;52.97
72096;BME280;59968;51.084;16.748;2023-06-24T12:20:42;100815.34;;;25.98;51.67
72096;BME280;59968;51.084;16.748;2023-06-24T12:23:12;100810.34;;;25.92;52.24
72096;BME280;59968;51.084;16.748;2023-06-24T12:25:43;100806.67;;;25.85;53.36
72096;BME280;59968;51.084;16.748;2023-06-24T12:28:14;100809.98;;;25.75;53.70
72096;BME280;59968;51.084;16.748;2023-06-24T12:30:43;100802.06;;;25.68;52.33
72096;BME280;59968;51.084;16.748;2023-06-24T12:33:13;100803.45;;;25.67;53.09
72096;BME280;59968;51.084;16.748;2023-06-24T12:35:45;100800.33;;;25.66;51.45
72096;BME280;59968;51.084;16.748;2023-06-24T12:38:23;100797.22;;;25.69;52.16
72096;BME280;59968;51.084;16.748;2023-06-24T12:40:52;100789.94;;;25.76;51.82
72096;BME280;59968;51.084;16.748;2023-06-24T12:43:23;100795.12;;;25.86;52.22
72096;BME280;59968;51.084;16.748;2023-06-24T12:45:52;100795.32;;;25.94;50.64
72096;BME280;59968;51.084;16.748;2023-06-24T12:48:21;100794.55;;;26.03;51.75
72096;BME280;59968;51.084;16.748;2023-06-24T12:50:50;100794.48;;;26.16;51.03
72096;BME280;59968;51.084;16.748;2023-06-24T12:53:21;100791.96;;;26.29;50.77
72096;BME280;59968;51.084;16.748;2023-06-24T12:55:50;100794.45;;;26.41;50.67
72096;BME280;59968;51.084;16.748;2023-06-24T12:58:21;100791.40;;;26.47;49.61
72096;BME280;59968;51.084;16.748;2023-06-24T13:00:50;100794.21;;;26.48;48.09
72096;BME280;59968;51.084;16.748;2023-06-24T13:03:20;100793.77;;;26.51;47.74
72096;BME280;59968;51.084;16.748;2023-06-24T13:05:48;100786.74;;;26.55;48.17
72096;BME280;59968;51.084;16.748;2023-06-24T13:08:17;100783.92;;;26.65;49.25
72096;BME280;59968;51.084;16.748;2023-06-24T13:10:46;100787.30;;;26.59;45.99
72096;BME280;59968;51.084;16.748;2023-06-24T13:13:16;100794.20;;;26.39;47.47
72096;BME280;59968;51.084;16.748;2023-06-24T13:15:56;100793.61;;;26.16;48.25
72096;BME280;59968;51.084;16.748;2023-06-24T13:18:25;100782.98;;;25.97;48.54
72096;BME280;59968;51.084;16.748;2023-06-24T13:20:54;100782.65;;;25.85;49.67
72096;BME280;59968;51.084;16.748;2023-06-24T13:23:41;100779.77;;;25.91;50.75
72096;BME280;59968;51.084;16.748;2023-06-24T13:26:10;100779.72;;;26.04;49.62
72096;BME280;59968;51.084;16.748;2023-06-24T13:28:39;100777.16;;;26.24;50.10